Time;durP1;ratioP1;P1;durP2;ratioP2;P2;SDS_P1;SDS_P2;PMS_P1;PMS_P2;Temp;Humidity;BMP_temperature;BMP_pressure;BME280_temperature;BME280_humidity;BME280_pressure;Samples;Min_cycle;Max_cycle;Signal;HPM_P1;HPM_P2
2023/02/02 00:03:30;;;;;;;;;;;18.70;33.90;;;;;;8363940;28;19917;-46
2023/02/02 00:07:30;;;;;;;;;;;18.70;33.90;;;;;;8364310;28;20011;-44
2023/02/02 00:11:31;;;;;;;;;;;18.60;33.80;;;;;;8363702;28;19916;-45
2023/02/02 00:15:31;;;;;;;;;;;18.60;33.90;;;;;;8363793;28;19913;-43
2023/02/02 00:19:32;;;;;;;;;;;18.60;33.90;;;;;;8363872;28;19989;-44
2023/02/02 00:23:32;;;;;;;;;;;18.60;33.90;;;;;;8364080;28;20012;-46
2023/02/02 00:27:33;;;;;;;;;;;18.60;33.90;;;;;;8363395;28;20382;-46
2023/02/02 00:31:33;;;;;;;;;;;18.50;33.90;;;;;;8363884;28;19928;-45
2023/02/02 00:35:34;;;;;;;;;;;18.50;33.90;;;;;;8363706;28;19912;-46
2023/02/02 00:39:34;;;;;;;;;;;18.50;33.90;;;;;;8362344;28;19920;-46
2023/02/02 00:43:35;;;;;;;;;;;18.50;33.90;;;;;;8363350;28;19920;-46
2023/02/02 00:47:35;;;;;;;;;;;18.50;34.00;;;;;;8363218;28;19935;-45
2023/02/02 00:51:36;;;;;;;;;;;18.40;33.90;;;;;;8362769;28;19917;-46
2023/02/02 00:55:36;;;;;;;;;;;18.40;33.90;;;;;;8363535;28;19966;-45
2023/02/02 00:59:37;;;;;;;;;;;18.40;33.90;;;;;;8362934;28;19920;-45
2023/02/02 01:03:37;;;;;;;;;;;18.40;33.90;;;;;;8362569;28;19917;-45
2023/02/02 01:07:38;;;;;;;;;;;18.40;33.90;;;;;;8363121;28;19920;-46
2023/02/02 01:11:38;;;;;;;;;;;18.40;33.90;;;;;;8362480;28;19970;-45
2023/02/02 01:15:39;;;;;;;;;;;18.40;33.90;;;;;;8363167;28;19917;-45
2023/02/02 01:19:40;;;;;;;;;;;18.40;33.90;;;;;;8362877;28;19924;-46
2023/02/02 01:23:40;;;;;;;;;;;18.30;33.90;;;;;;8364394;28;20007;-47
2023/02/02 01:27:41;;;;;;;;;;;18.30;33.90;;;;;;8369191;28;19917;-47
2023/02/02 01:31:41;;;;;;;;;;;18.30;33.90;;;;;;8369192;28;19913;-46
2023/02/02 01:35:46;;;;;;;;;;;18.30;34.00;;;;;;8368723;28;19917;-46
2023/02/02 01:39:47;;;;;;;;;;;18.30;33.90;;;;;;8368872;28;19917;-43
2023/02/02 01:43:49;;;;;;;;;;;18.30;33.90;;;;;;8368648;28;19956;-43
2023/02/02 01:47:51;;;;;;;;;;;18.30;34.00;;;;;;8368280;28;19920;-44
2023/02/02 01:51:56;;;;;;;;;;;18.30;34.00;;;;;;8368742;28;19913;-44
2023/02/02 01:55:57;;;;;;;;;;;18.30;34.00;;;;;;8368862;28;19924;-45
2023/02/02 01:59:59;;;;;;;;;;;18.20;34.00;;;;;;8367885;28;20387;-45
2023/02/02 02:04:00;;;;;;;;;;;18.20;34.00;;;;;;8368134;28;19921;-45
2023/02/02 02:08:08;;;;;;;;;;;18.20;34.00;;;;;;8367126;28;19917;-45
2023/02/02 02:12:12;;;;;;;;;;;18.20;34.00;;;;;;8367532;28;19917;-45
2023/02/02 02:16:18;;;;;;;;;;;18.30;34.10;;;;;;8368241;28;19973;-45
2023/02/02 02:29:40;;;;;;;;;;;18.30;34.10;;;;;;8370625;28;19924;-45
2023/02/02 02:33:49;;;;;;;;;;;18.20;34.00;;;;;;8366564;28;20259;-45
2023/02/02 02:37:56;;;;;;;;;;;18.20;34.00;;;;;;8367017;28;19929;-45
2023/02/02 02:41:59;;;;;;;;;;;18.20;34.00;;;;;;8366615;28;20331;-45
2023/02/02 02:46:00;;;;;;;;;;;18.20;34.00;;;;;;8367119;28;20000;-45
2023/02/02 02:50:01;;;;;;;;;;;18.30;34.10;;;;;;8366933;28;19917;-45
2023/02/02 02:54:01;;;;;;;;;;;18.20;34.00;;;;;;8366225;28;20019;-45
2023/02/02 02:58:05;;;;;;;;;;;18.20;34.10;;;;;;8366854;28;19928;-45
2023/02/02 03:02:19;;;;;;;;;;;18.20;34.10;;;;;;8366375;28;19917;-45
2023/02/02 03:06:52;;;;;;;;;;;18.20;34.10;;;;;;8366142;28;20389;-44
2023/02/02 03:10:54;;;;;;;;;;;18.20;34.10;;;;;;8299776;28;19925;-44
2023/02/02 03:14:55;;;;;;;;;;;18.20;34.10;;;;;;8355703;28;20366;-45
2023/02/02 03:18:55;;;;;;;;;;;18.20;34.10;;;;;;8365996;28;19937;-45
2023/02/02 03:22:56;;;;;;;;;;;18.20;34.10;;;;;;8365715;28;19913;-44
2023/02/02 03:26:56;;;;;;;;;;;18.20;34.10;;;;;;8365385;28;20356;-44
2023/02/02 03:30:58;;;;;;;;;;;18.20;34.10;;;;;;8365471;28;19963;-45
2023/02/02 03:34:58;;;;;;;;;;;18.20;34.20;;;;;;8365592;28;19917;-45
2023/02/02 03:38:58;;;;;;;;;;;18.20;34.20;;;;;;8364594;28;19925;-44
2023/02/02 03:42:59;;;;;;;;;;;18.10;34.10;;;;;;8365028;28;19912;-45
2023/02/02 03:47:00;;;;;;;;;;;18.10;34.10;;;;;;8364518;28;19947;-44
2023/02/02 03:51:03;;;;;;;;;;;18.10;34.20;;;;;;8364481;28;20000;-45
2023/02/02 03:55:04;;;;;;;;;;;18.10;34.20;;;;;;8364562;28;20365;-45
2023/02/02 03:59:04;;;;;;;;;;;18.10;34.20;;;;;;8364533;28;19925;-46
2023/02/02 04:03:05;;;;;;;;;;;18.10;34.20;;;;;;8364004;28;20003;-44
2023/02/02 04:07:05;;;;;;;;;;;18.00;34.20;;;;;;8364577;28;20011;-45
2023/02/02 04:11:08;;;;;;;;;;;18.10;34.20;;;;;;8364177;28;19925;-44
2023/02/02 04:15:09;;;;;;;;;;;18.00;34.20;;;;;;8363570;28;19968;-45
2023/02/02 04:19:11;;;;;;;;;;;18.00;34.20;;;;;;8364035;28;19929;-44
2023/02/02 04:23:12;;;;;;;;;;;18.00;34.20;;;;;;8363947;28;19921;-44
2023/02/02 04:27:12;;;;;;;;;;;18.00;34.30;;;;;;8363681;28;19940;-45
2023/02/02 04:31:12;;;;;;;;;;;18.00;34.20;;;;;;8363476;28;19962;-45
2023/02/02 04:35:13;;;;;;;;;;;18.00;34.20;;;;;;8363524;28;20404;-45
2023/02/02 04:39:13;;;;;;;;;;;18.00;34.30;;;;;;8362979;28;19924;-45
2023/02/02 04:43:14;;;;;;;;;;;18.00;34.20;;;;;;8363456;28;19932;-44
2023/02/02 04:47:14;;;;;;;;;;;18.00;34.30;;;;;;8363812;28;19919;-45
2023/02/02 04:51:15;;;;;;;;;;;18.00;34.30;;;;;;8362880;28;19923;-45
2023/02/02 04:55:15;;;;;;;;;;;18.00;34.30;;;;;;8363243;28;19920;-45
2023/02/02 04:59:16;;;;;;;;;;;17.90;34.20;;;;;;8362757;28;19936;-44
2023/02/02 05:03:16;;;;;;;;;;;18.00;34.30;;;;;;8361640;28;19972;-45
2023/02/02 05:07:16;;;;;;;;;;;18.00;34.30;;;;;;8363210;28;19920;-44
2023/02/02 05:11:19;;;;;;;;;;;18.00;34.30;;;;;;8363026;28;19979;-45
2023/02/02 05:15:22;;;;;;;;;;;18.00;34.30;;;;;;8362369;28;19917;-45
2023/02/02 05:19:23;;;;;;;;;;;18.10;34.30;;;;;;8362920;28;19931;-43
2023/02/02 05:23:23;;;;;;;;;;;18.10;34.20;;;;;;8362778;28;19917;-45
2023/02/02 05:27:24;;;;;;;;;;;18.20;34.20;;;;;;8362255;28;19920;-45
2023/02/02 05:31:24;;;;;;;;;;;18.30;34.10;;;;;;8362883;28;19916;-45
2023/02/02 05:35:24;;;;;;;;;;;18.40;34.10;;;;;;8362404;28;20010;-44
2023/02/02 05:39:25;;;;;;;;;;;18.40;34.00;;;;;;8361948;28;20436;-44
2023/02/02 05:43:26;;;;;;;;;;;18.50;34.00;;;;;;8362362;28;19920;-45
2023/02/02 05:47:26;;;;;;;;;;;18.50;34.00;;;;;;8362510;28;19944;-46
2023/02/02 05:51:28;;;;;;;;;;;18.60;33.90;;;;;;8361860;28;19924;-45
2023/02/02 05:55:28;;;;;;;;;;;18.60;33.90;;;;;;8362354;28;19921;-44
2023/02/02 05:59:29;;;;;;;;;;;18.70;33.90;;;;;;8362000;28;19932;-45
2023/02/02 06:03:29;;;;;;;;;;;18.70;33.90;;;;;;8361563;28;19945;-44
2023/02/02 06:07:30;;;;;;;;;;;18.80;33.80;;;;;;8362278;28;19912;-45
2023/02/02 06:11:30;;;;;;;;;;;18.80;33.90;;;;;;8366548;28;19917;-45
2023/02/02 06:15:31;;;;;;;;;;;18.80;33.90;;;;;;8367354;28;19999;-45
2023/02/02 06:19:32;;;;;;;;;;;18.90;33.80;;;;;;8367633;28;19931;-46
2023/02/02 06:23:33;;;;;;;;;;;18.90;33.90;;;;;;8367663;28;19913;-45
2023/02/02 06:27:33;;;;;;;;;;;18.90;33.90;;;;;;8367441;28;20362;-45
2023/02/02 06:31:34;;;;;;;;;;;18.90;33.80;;;;;;8367489;28;19927;-44
2023/02/02 06:35:34;;;;;;;;;;;19.00;33.90;;;;;;8367192;28;19924;-46
2023/02/02 06:39:35;;;;;;;;;;;19.00;33.80;;;;;;8366608;28;19961;-46
2023/02/02 06:43:35;;;;;;;;;;;19.00;33.80;;;;;;8367114;28;19917;-45
2023/02/02 06:47:36;;;;;;;;;;;19.10;33.90;;;;;;8367166;28;19917;-44
2023/02/02 06:51:36;;;;;;;;;;;19.10;34.30;;;;;;8366171;28;19917;-44
2023/02/02 06:55:37;;;;;;;;;;;19.10;33.80;;;;;;8366642;28;19924;-45
2023/02/02 06:59:39;;;;;;;;;;;19.10;33.80;;;;;;8366367;28;19925;-44
2023/02/02 07:03:40;;;;;;;;;;;19.10;33.80;;;;;;8366508;28;19913;-44
2023/02/02 07:07:41;;;;;;;;;;;19.20;33.80;;;;;;8367042;28;19920;-45
2023/02/02 07:11:41;;;;;;;;;;;19.20;33.80;;;;;;8365616;28;19923;-48
2023/02/02 07:15:41;;;;;;;;;;;19.20;33.80;;;;;;8365898;28;19916;-46
2023/02/02 07:19:42;;;;;;;;;;;19.20;33.70;;;;;;8365529;28;19993;-46
2023/02/02 07:23:42;;;;;;;;;;;19.30;33.70;;;;;;8365583;28;19975;-46
2023/02/02 07:27:43;;;;;;;;;;;19.30;33.70;;;;;;8365552;28;19995;-45
2023/02/02 07:31:43;;;;;;;;;;;19.30;33.70;;;;;;8365514;28;19916;-46
2023/02/02 07:35:44;;;;;;;;;;;19.30;33.80;;;;;;8365015;28;19917;-46
2023/02/02 07:39:44;;;;;;;;;;;19.30;33.70;;;;;;8365441;28;19970;-45
2023/02/02 07:43:48;;;;;;;;;;;19.40;33.70;;;;;;8365263;28;19912;-46
2023/02/02 07:47:54;;;;;;;;;;;19.40;33.70;;;;;;8364432;28;20358;-46
2023/02/02 07:51:54;;;;;;;;;;;19.40;33.70;;;;;;8364885;28;19943;-46
2023/02/02 07:56:08;;;;;;;;;;;19.40;33.70;;;;;;8364722;28;19921;-46
2023/02/02 08:00:08;;;;;;;;;;;19.40;33.70;;;;;;8364721;28;19962;-46
2023/02/02 08:04:09;;;;;;;;;;;19.40;33.70;;;;;;8364503;28;19913;-46
2023/02/02 08:08:09;;;;;;;;;;;19.50;33.70;;;;;;8365147;28;20362;-46
2023/02/02 08:12:10;;;;;;;;;;;19.50;33.70;;;;;;8366032;28;19924;-46
2023/02/02 08:16:10;;;;;;;;;;;19.50;33.70;;;;;;8366448;28;20377;-46
2023/02/02 08:20:12;;;;;;;;;;;19.50;33.70;;;;;;8364519;28;19921;-45
2023/02/02 08:24:12;;;;;;;;;;;19.50;33.70;;;;;;8363968;28;19913;-45
2023/02/02 08:28:13;;;;;;;;;;;19.50;33.70;;;;;;8364192;28;20376;-46
2023/02/02 08:32:13;;;;;;;;;;;19.40;33.70;;;;;;8363432;28;19962;-45
2023/02/02 08:36:15;;;;;;;;;;;19.40;33.70;;;;;;8363508;28;20055;-45
2023/02/02 08:40:16;;;;;;;;;;;19.40;33.70;;;;;;8363802;28;20332;-45
2023/02/02 08:44:16;;;;;;;;;;;19.30;33.70;;;;;;8363624;28;19995;-45
2023/02/02 08:48:18;;;;;;;;;;;19.30;33.70;;;;;;8363055;28;19917;-46
2023/02/02 08:52:19;;;;;;;;;;;19.30;33.70;;;;;;8363462;28;19984;-45
2023/02/02 08:56:20;;;;;;;;;;;19.20;33.80;;;;;;8363575;28;19928;-46
2023/02/02 09:00:20;;;;;;;;;;;19.20;33.80;;;;;;8362681;28;19917;-45
2023/02/02 09:04:21;;;;;;;;;;;19.10;33.80;;;;;;8363249;28;19913;-46
2023/02/02 09:08:21;;;;;;;;;;;19.10;33.80;;;;;;8362933;28;19917;-45
2023/02/02 09:12:21;;;;;;;;;;;19.10;33.90;;;;;;8362299;28;19993;-47
2023/02/02 09:16:22;;;;;;;;;;;19.10;33.90;;;;;;8362790;28;19925;-44
2023/02/02 09:20:23;;;;;;;;;;;19.10;33.90;;;;;;8362854;28;19995;-44
2023/02/02 09:24:23;;;;;;;;;;;19.00;33.80;;;;;;8362326;28;19966;-44
2023/02/02 09:28:23;;;;;;;;;;;19.00;33.90;;;;;;8362601;28;19975;-44
2023/02/02 09:32:24;;;;;;;;;;;19.00;33.90;;;;;;8362705;28;20411;-44
2023/02/02 09:36:25;;;;;;;;;;;18.90;34.50;;;;;;8361959;28;20019;-45
2023/02/02 09:40:29;;;;;;;;;;;18.90;33.90;;;;;;8362648;28;19916;-45
2023/02/02 09:44:46;;;;;;;;;;;18.90;34.00;;;;;;8364354;28;19913;-45
2023/02/02 09:48:58;;;;;;;;;;;18.90;34.50;;;;;;8368806;28;20286;-44
2023/02/02 09:53:03;;;;;;;;;;;18.90;34.00;;;;;;8368466;28;19917;-44
2023/02/02 09:57:07;;;;;;;;;;;18.80;34.00;;;;;;8368118;28;20004;-44
2023/02/02 10:01:12;;;;;;;;;;;18.80;34.00;;;;;;8368334;28;19913;-46
2023/02/02 10:05:22;;;;;;;;;;;18.80;34.10;;;;;;8368257;28;19925;-45
2023/02/02 10:09:46;;;;;;;;;;;18.80;34.10;;;;;;8367868;28;19916;-44
2023/02/02 10:13:48;;;;;;;;;;;18.80;34.10;;;;;;8367864;28;19921;-45
2023/02/02 10:17:57;;;;;;;;;;;18.80;34.10;;;;;;8367316;28;20416;-45
2023/02/02 10:22:09;;;;;;;;;;;18.70;34.10;;;;;;8367782;28;19959;-45
2023/02/02 10:26:21;;;;;;;;;;;18.70;34.20;;;;;;8367655;28;19912;-45
2023/02/02 10:30:26;;;;;;;;;;;18.70;34.10;;;;;;8366821;28;19924;-45
2023/02/02 10:34:40;;;;;;;;;;;18.70;34.20;;;;;;8367507;28;20301;-45
2023/02/02 10:39:01;;;;;;;;;;;18.60;34.30;;;;;;8366653;28;19932;-43
2023/02/02 10:43:46;;;;;;;;;;;18.70;34.20;;;;;;8366036;28;19917;-44
2023/02/02 10:47:46;;;;;;;;;;;18.60;34.20;;;;;;8366379;28;19931;-45
2023/02/02 10:51:50;;;;;;;;;;;18.60;34.20;;;;;;8366372;28;20366;-44
2023/02/02 10:56:05;;;;;;;;;;;18.60;34.20;;;;;;8366197;28;19966;-44
2023/02/02 11:00:13;;;;;;;;;;;18.60;34.20;;;;;;8365651;28;20287;-44
2023/02/02 11:08:34;;;;;;;;;;;18.50;34.30;;;;;;8366899;28;20340;-45
2023/02/02 11:12:38;;;;;;;;;;;18.50;34.30;;;;;;8365454;28;19921;-45
2023/02/02 11:16:39;;;;;;;;;;;18.50;34.30;;;;;;8365990;28;19924;-44
2023/02/02 11:20:40;;;;;;;;;;;18.50;34.30;;;;;;8365281;28;19936;-45
2023/02/02 11:24:48;;;;;;;;;;;18.50;34.30;;;;;;8365818;28;19913;-44
2023/02/02 11:28:50;;;;;;;;;;;18.50;34.30;;;;;;8365709;28;20366;-44
2023/02/02 11:32:51;;;;;;;;;;;18.50;34.30;;;;;;8364947;28;19917;-44
2023/02/02 11:36:57;;;;;;;;;;;18.50;34.30;;;;;;8365341;28;19924;-44
2023/02/02 11:41:01;;;;;;;;;;;18.50;34.30;;;;;;8365057;28;19956;-44
2023/02/02 11:45:03;;;;;;;;;;;18.50;34.40;;;;;;8364892;28;20381;-45
2023/02/02 11:49:08;;;;;;;;;;;18.50;34.30;;;;;;8364881;28;19917;-45
2023/02/02 11:53:19;;;;;;;;;;;18.50;34.30;;;;;;8365043;28;20435;-44
2023/02/02 11:57:20;;;;;;;;;;;18.50;34.40;;;;;;8364647;28;20019;-44
2023/02/02 12:01:26;;;;;;;;;;;18.50;34.40;;;;;;8364770;28;20011;-44
2023/02/02 12:05:36;;;;;;;;;;;18.50;34.40;;;;;;8364517;28;20294;-45
2023/02/02 12:09:36;;;;;;;;;;;18.50;34.40;;;;;;8363059;28;20380;-46
2023/02/02 12:13:57;;;;;;;;;;;18.50;34.40;;;;;;8364422;28;19922;-44
2023/02/02 12:18:05;;;;;;;;;;;18.40;34.30;;;;;;8322512;28;25483;-44
2023/02/02 12:22:12;;;;;;;;;;;18.50;34.40;;;;;;8363772;28;20015;-44
2023/02/02 12:26:25;;;;;;;;;;;18.40;34.30;;;;;;8363551;28;20350;-44
2023/02/02 12:30:30;;;;;;;;;;;18.40;34.30;;;;;;8363239;28;19913;-45
2023/02/02 12:34:39;;;;;;;;;;;18.40;34.40;;;;;;8363387;28;19917;-45
2023/02/02 12:38:45;;;;;;;;;;;18.40;34.30;;;;;;8362773;28;20003;-43
2023/02/02 12:43:05;;;;;;;;;;;18.40;34.40;;;;;;8363337;28;19999;-44
2023/02/02 12:47:24;;;;;;;;;;;18.40;34.50;;;;;;8363543;28;20373;-45
2023/02/02 12:51:44;;;;;;;;;;;18.40;34.50;;;;;;8362771;28;19917;-44
2023/02/02 12:55:50;;;;;;;;;;;18.40;34.40;;;;;;8363144;28;20275;-45
2023/02/02 13:00:04;;;;;;;;;;;18.40;34.40;;;;;;8362647;28;19956;-45
2023/02/02 13:04:23;;;;;;;;;;;18.40;34.40;;;;;;8363242;28;20381;-46
2023/02/02 13:08:29;;;;;;;;;;;18.40;34.40;;;;;;8362740;28;19924;-45
2023/02/02 13:12:33;;;;;;;;;;;18.40;34.50;;;;;;8362146;28;19921;-46
2023/02/02 13:16:35;;;;;;;;;;;18.40;34.50;;;;;;8362764;28;19932;-46
2023/02/02 13:20:38;;;;;;;;;;;18.40;34.50;;;;;;8368190;28;19959;-46
2023/02/02 13:24:41;;;;;;;;;;;18.30;34.40;;;;;;8369018;28;19917;-45
2023/02/02 13:28:47;;;;;;;;;;;18.30;34.40;;;;;;8369262;28;19916;-47
2023/02/02 13:32:48;;;;;;;;;;;18.30;34.50;;;;;;8368753;28;19963;-46
2023/02/02 13:37:14;;;;;;;;;;;18.30;34.50;;;;;;8369198;28;19925;-45
2023/02/02 13:41:17;;;;;;;;;;;18.30;34.60;;;;;;8338217;28;20328;-46
2023/02/02 13:45:40;;;;;;;;;;;18.30;34.60;;;;;;8368366;28;20472;-45
2023/02/02 13:49:43;;;;;;;;;;;18.30;34.50;;;;;;8368741;28;20305;-47
2023/02/02 13:54:02;;;;;;;;;;;18.20;34.50;;;;;;8368036;28;19917;-46
2023/02/02 13:58:11;;;;;;;;;;;18.20;34.50;;;;;;8368741;28;19991;-49
2023/02/02 14:02:19;;;;;;;;;;;18.20;34.50;;;;;;8368153;28;20389;-48
2023/02/02 14:06:21;;;;;;;;;;;18.20;34.50;;;;;;8366649;28;19992;-45
2023/02/02 14:10:26;;;;;;;;;;;18.20;34.50;;;;;;8367596;28;20305;-47
2023/02/02 14:14:31;;;;;;;;;;;18.20;34.50;;;;;;8367746;28;19920;-45
2023/02/02 14:18:54;;;;;;;;;;;18.20;34.50;;;;;;8367248;28;19929;-46
2023/02/02 14:22:55;;;;;;;;;;;18.20;34.60;;;;;;8366586;28;19917;-46
2023/02/02 14:26:56;;;;;;;;;;;18.20;35.20;;;;;;8367069;28;20425;-45
2023/02/02 14:31:16;;;;;;;;;;;18.20;34.60;;;;;;8367012;28;19917;-45
2023/02/02 14:35:24;;;;;;;;;;;18.20;34.60;;;;;;8367046;28;20353;-45
2023/02/02 14:39:28;;;;;;;;;;;18.20;34.60;;;;;;8366440;28;20373;-46
2023/02/02 14:43:43;;;;;;;;;;;18.20;34.60;;;;;;8366704;28;20419;-46
2023/02/02 14:47:44;;;;;;;;;;;18.10;34.60;;;;;;8366406;28;20289;-45
2023/02/02 14:51:46;;;;;;;;;;;18.10;34.60;;;;;;8366556;28;20000;-46
2023/02/02 14:55:55;;;;;;;;;;;18.10;34.60;;;;;;8366703;28;19952;-45
2023/02/02 14:59:56;;;;;;;;;;;18.10;34.60;;;;;;8365687;28;19925;-45
2023/02/02 15:04:15;;;;;;;;;;;18.10;34.60;;;;;;8366133;28;19931;-45
2023/02/02 15:08:21;;;;;;;;;;;18.10;34.60;;;;;;8365938;28;19970;-45
2023/02/02 15:12:36;;;;;;;;;;;18.10;34.70;;;;;;8364331;28;20016;-45
2023/02/02 15:16:37;;;;;;;;;;;18.10;34.70;;;;;;8366215;28;20004;-45
2023/02/02 15:20:43;;;;;;;;;;;18.10;34.70;;;;;;8365961;28;20262;-45
2023/02/02 15:24:44;;;;;;;;;;;18.10;34.60;;;;;;8365695;28;19967;-45
2023/02/02 15:28:45;;;;;;;;;;;18.10;34.70;;;;;;8365587;28;19924;-45
2023/02/02 15:32:45;;;;;;;;;;;18.10;34.70;;;;;;8365051;28;19956;-45
2023/02/02 15:36:50;;;;;;;;;;;18.10;34.70;;;;;;8365379;28;19920;-46
2023/02/02 15:40:50;;;;;;;;;;;18.00;34.70;;;;;;8365439;28;20389;-48
2023/02/02 15:44:50;;;;;;;;;;;18.00;34.70;;;;;;8364591;28;20203;-46
2023/02/02 15:49:10;;;;;;;;;;;18.00;34.70;;;;;;8365198;28;20444;-46
2023/02/02 15:53:16;;;;;;;;;;;18.00;34.70;;;;;;8364596;28;19923;-49
2023/02/02 15:57:21;;;;;;;;;;;18.00;34.70;;;;;;8364644;28;20390;-46
2023/02/02 16:01:23;;;;;;;;;;;18.00;34.70;;;;;;8364463;28;19923;-48
2023/02/02 16:05:35;;;;;;;;;;;18.10;34.70;;;;;;8364031;28;20393;-46
2023/02/02 16:09:37;;;;;;;;;;;18.10;34.70;;;;;;8363593;28;20289;-46
2023/02/02 16:13:39;;;;;;;;;;;18.20;34.60;;;;;;8364080;28;19913;-45
2023/02/02 16:17:39;;;;;;;;;;;18.30;34.60;;;;;;8363524;28;20407;-47
2023/02/02 16:21:45;;;;;;;;;;;18.40;34.50;;;;;;8364452;28;19913;-45
2023/02/02 16:25:47;;;;;;;;;;;18.40;34.40;;;;;;8363996;28;20386;-46
2023/02/02 16:29:48;;;;;;;;;;;18.50;34.40;;;;;;8363116;28;20105;-46
2023/02/02 16:33:48;;;;;;;;;;;18.50;34.30;;;;;;8363556;28;19925;-45
2023/02/02 16:37:49;;;;;;;;;;;18.60;34.30;;;;;;8363312;28;19929;-45
2023/02/02 16:41:49;;;;;;;;;;;18.60;34.20;;;;;;8363071;28;19916;-45
2023/02/02 16:45:54;;;;;;;;;;;18.70;34.30;;;;;;8363379;28;19996;-49
2023/02/02 16:50:07;;;;;;;;;;;18.70;34.30;;;;;;8362761;28;19921;-46
2023/02/02 16:54:07;;;;;;;;;;;18.70;34.30;;;;;;8362118;28;20569;-47
2023/02/02 16:58:12;;;;;;;;;;;18.80;34.30;;;;;;8362863;28;19932;-46
2023/02/02 17:02:21;;;;;;;;;;;18.80;34.20;;;;;;8363261;28;20055;-49
2023/02/02 17:06:26;;;;;;;;;;;18.80;34.10;;;;;;8362097;28;19917;-46
2023/02/02 17:10:29;;;;;;;;;;;18.90;34.10;;;;;;8361643;28;19917;-46
2023/02/02 17:14:32;;;;;;;;;;;18.90;34.10;;;;;;8362389;28;20378;-48
2023/02/02 17:18:32;;;;;;;;;;;18.90;34.10;;;;;;8361818;28;20390;-46
2023/02/02 17:22:36;;;;;;;;;;;18.90;34.10;;;;;;8363033;28;20002;-48
2023/02/02 17:26:37;;;;;;;;;;;19.00;34.20;;;;;;8362459;28;20362;-47
2023/02/02 17:30:41;;;;;;;;;;;19.00;34.20;;;;;;8361841;28;19916;-46
2023/02/02 17:34:41;;;;;;;;;;;19.10;34.20;;;;;;8362521;28;19924;-49
2023/02/02 17:38:42;;;;;;;;;;;19.00;34.10;;;;;;8361994;28;19932;-49
2023/02/02 17:42:43;;;;;;;;;;;19.00;34.10;;;;;;8362459;28;19913;-49
2023/02/02 17:46:43;;;;;;;;;;;19.10;34.10;;;;;;8362041;28;19916;-47
2023/02/02 17:50:44;;;;;;;;;;;19.10;34.10;;;;;;8361666;28;19921;-46
2023/02/02 17:54:44;;;;;;;;;;;19.20;34.00;;;;;;8362074;28;19924;-47
2023/02/02 17:58:45;;;;;;;;;;;19.20;34.10;;;;;;8362194;28;19971;-46
2023/02/02 18:02:46;;;;;;;;;;;19.20;34.00;;;;;;8361858;28;19952;-46
2023/02/02 18:06:47;;;;;;;;;;;19.20;34.00;;;;;;8365427;28;20294;-46
2023/02/02 18:10:47;;;;;;;;;;;19.30;34.10;;;;;;8368235;28;19921;-46
2023/02/02 18:14:48;;;;;;;;;;;19.30;34.00;;;;;;8367325;28;19925;-46
2023/02/02 18:18:48;;;;;;;;;;;19.30;34.00;;;;;;8367498;28;19948;-48
2023/02/02 18:22:51;;;;;;;;;;;19.40;34.00;;;;;;8367886;28;20396;-47
2023/02/02 18:26:52;;;;;;;;;;;19.40;34.00;;;;;;8367032;28;19917;-47
2023/02/02 18:30:52;;;;;;;;;;;19.40;33.90;;;;;;8367706;28;20007;-49
2023/02/02 18:34:54;;;;;;;;;;;19.40;33.90;;;;;;8367117;28;19917;-49
2023/02/02 18:38:55;;;;;;;;;;;19.40;34.40;;;;;;8366630;28;20378;-46
2023/02/02 18:42:55;;;;;;;;;;;19.40;34.40;;;;;;8367577;28;19917;-47
2023/02/02 18:46:56;;;;;;;;;;;19.50;33.90;;;;;;8367078;28;19928;-45
2023/02/02 18:50:57;;;;;;;;;;;19.40;33.80;;;;;;8366052;28;19920;-47
2023/02/02 18:54:57;;;;;;;;;;;19.50;33.90;;;;;;8366714;28;19921;-47
2023/02/02 18:58:58;;;;;;;;;;;19.50;33.90;;;;;;8366121;28;20440;-45
2023/02/02 19:02:58;;;;;;;;;;;19.50;33.90;;;;;;8366155;28;19921;-48
2023/02/02 19:11:22;;;;;;;;;;;19.50;33.90;;;;;;8366159;28;20400;-45
2023/02/02 19:15:24;;;;;;;;;;;19.60;34.00;;;;;;8365181;28;19917;-45
2023/02/02 19:19:27;;;;;;;;;;;19.60;33.90;;;;;;8365780;28;19969;-45
2023/02/02 19:23:28;;;;;;;;;;;19.60;33.80;;;;;;8366064;28;19920;-47
2023/02/02 19:27:30;;;;;;;;;;;19.60;33.90;;;;;;8365156;28;20381;-45
2023/02/02 19:31:30;;;;;;;;;;;19.60;33.80;;;;;;8365814;28;19916;-45
2023/02/02 19:35:31;;;;;;;;;;;19.70;33.90;;;;;;8365503;28;19917;-45
2023/02/02 19:39:31;;;;;;;;;;;19.60;33.80;;;;;;8364643;28;19925;-45
2023/02/02 19:43:33;;;;;;;;;;;19.70;33.80;;;;;;8365513;28;19958;-44
2023/02/02 19:47:33;;;;;;;;;;;19.70;33.80;;;;;;8365028;28;19916;-45
2023/02/02 19:51:40;;;;;;;;;;;19.70;33.80;;;;;;8364397;28;20290;-45
2023/02/02 19:55:43;;;;;;;;;;;19.80;33.90;;;;;;8365270;28;20293;-45
2023/02/02 19:59:45;;;;;;;;;;;19.80;33.80;;;;;;8364053;28;19970;-46
2023/02/02 20:03:45;;;;;;;;;;;19.80;33.80;;;;;;8363815;28;19916;-46
2023/02/02 20:07:47;;;;;;;;;;;19.80;33.70;;;;;;8364653;28;19939;-46
2023/02/02 20:11:50;;;;;;;;;;;19.80;33.80;;;;;;8363669;28;19924;-46
2023/02/02 20:15:52;;;;;;;;;;;19.80;33.80;;;;;;8364236;28;19924;-46
2023/02/02 20:19:52;;;;;;;;;;;19.80;33.70;;;;;;8363904;28;19955;-45
2023/02/02 20:23:52;;;;;;;;;;;19.90;33.80;;;;;;8363759;28;19917;-45
2023/02/02 20:27:53;;;;;;;;;;;19.80;33.70;;;;;;8363427;28;20006;-46
2023/02/02 20:31:54;;;;;;;;;;;19.90;33.70;;;;;;8363806;28;19916;-46
2023/02/02 20:35:55;;;;;;;;;;;19.90;33.80;;;;;;8362784;28;19979;-46
2023/02/02 20:39:59;;;;;;;;;;;19.90;33.70;;;;;;8363408;28;19935;-45
2023/02/02 20:43:59;;;;;;;;;;;19.90;33.70;;;;;;8363810;28;20274;-45
2023/02/02 20:47:59;;;;;;;;;;;19.90;33.70;;;;;;8362856;28;20008;-46
2023/02/02 20:52:01;;;;;;;;;;;19.90;34.20;;;;;;8363220;28;19916;-46
2023/02/02 20:56:02;;;;;;;;;;;20.00;33.70;;;;;;8363190;28;19924;-45
2023/02/02 21:00:07;;;;;;;;;;;20.00;33.80;;;;;;8362675;28;19974;-47
2023/02/02 21:04:09;;;;;;;;;;;20.00;33.70;;;;;;8362857;28;21297;-45
2023/02/02 21:08:09;;;;;;;;;;;20.00;33.70;;;;;;8363043;28;19924;-45
2023/02/02 21:12:10;;;;;;;;;;;20.00;33.70;;;;;;8362434;28;19917;-45
2023/02/02 21:16:11;;;;;;;;;;;20.00;33.70;;;;;;8363205;28;19917;-46
2023/02/02 21:20:13;;;;;;;;;;;20.00;33.70;;;;;;8362621;28;20007;-46
2023/02/02 21:24:13;;;;;;;;;;;20.00;33.70;;;;;;8362420;28;19981;-45
2023/02/02 21:28:14;;;;;;;;;;;20.00;33.70;;;;;;8362986;28;19916;-45
2023/02/02 21:32:14;;;;;;;;;;;20.00;33.70;;;;;;8362886;28;19923;-45
2023/02/02 21:36:19;;;;;;;;;;;20.00;33.60;;;;;;8362272;28;19924;-45
2023/02/02 21:40:27;;;;;;;;;;;19.90;33.60;;;;;;8365666;28;19921;-45
2023/02/02 21:44:27;;;;;;;;;;;19.90;33.60;;;;;;8369025;28;20020;-46
2023/02/02 21:48:31;;;;;;;;;;;19.90;33.60;;;;;;8368487;28;19917;-46
2023/02/02 21:52:32;;;;;;;;;;;19.80;33.60;;;;;;8368804;28;19917;-46
2023/02/02 21:56:37;;;;;;;;;;;19.80;33.70;;;;;;8368546;28;19975;-45
2023/02/02 22:00:37;;;;;;;;;;;19.80;33.70;;;;;;8368127;28;20262;-47
2023/02/02 22:04:38;;;;;;;;;;;19.70;33.60;;;;;;8368640;28;19916;-46
2023/02/02 22:08:38;;;;;;;;;;;19.70;33.70;;;;;;8368287;28;19970;-45
2023/02/02 22:12:40;;;;;;;;;;;19.70;33.70;;;;;;8367712;28;19917;-45
2023/02/02 22:16:42;;;;;;;;;;;19.60;33.80;;;;;;8368098;28;20007;-45
2023/02/02 22:20:47;;;;;;;;;;;19.60;33.90;;;;;;8367260;28;19924;-44
2023/02/02 22:24:58;;;;;;;;;;;19.50;33.90;;;;;;8368134;28;20354;-44
2023/02/02 22:29:00;;;;;;;;;;;19.50;33.90;;;;;;8367784;28;19917;-45
2023/02/02 22:33:01;;;;;;;;;;;19.40;33.80;;;;;;8367130;28;19917;-44
2023/02/02 22:37:02;;;;;;;;;;;19.40;33.90;;;;;;8367188;28;19979;-44
2023/02/02 22:41:05;;;;;;;;;;;19.40;33.90;;;;;;8367507;28;20333;-45
2023/02/02 22:45:05;;;;;;;;;;;19.30;34.00;;;;;;8366513;28;20293;-45
2023/02/02 22:49:06;;;;;;;;;;;19.30;34.00;;;;;;8367375;28;19919;-44
2023/02/02 22:53:06;;;;;;;;;;;19.30;34.00;;;;;;8366013;28;19916;-46
2023/02/02 22:57:06;;;;;;;;;;;19.30;34.00;;;;;;8365983;28;19976;-46
2023/02/02 23:01:08;;;;;;;;;;;19.20;34.00;;;;;;8365766;28;19942;-46
2023/02/02 23:05:10;;;;;;;;;;;19.20;34.10;;;;;;8366433;28;19954;-46
2023/02/02 23:09:11;;;;;;;;;;;19.20;34.10;;;;;;8365080;28;19917;-45
2023/02/02 23:13:11;;;;;;;;;;;19.10;34.10;;;;;;8366072;28;19989;-45
2023/02/02 23:17:11;;;;;;;;;;;19.10;34.10;;;;;;8366035;28;19947;-46
2023/02/02 23:21:12;;;;;;;;;;;19.10;34.10;;;;;;8365594;28;20388;-45
2023/02/02 23:25:12;;;;;;;;;;;19.10;34.10;;;;;;8366074;28;20012;-45
2023/02/02 23:29:13;;;;;;;;;;;19.10;34.10;;;;;;8365752;28;19917;-45
2023/02/02 23:33:13;;;;;;;;;;;19.00;34.20;;;;;;8365072;28;20293;-45
2023/02/02 23:37:14;;;;;;;;;;;19.00;34.20;;;;;;8365409;28;19921;-45
2023/02/02 23:41:14;;;;;;;;;;;19.00;34.20;;;;;;8365245;28;19921;-45
2023/02/02 23:45:15;;;;;;;;;;;18.90;34.20;;;;;;8364930;28;20429;-45
2023/02/02 23:49:15;;;;;;;;;;;18.90;34.20;;;;;;8364970;28;20399;-45
2023/02/02 23:53:16;;;;;;;;;;;18.90;34.20;;;;;;8365051;28;19939;-45